CheckWX is a tool to help pilots better visualize weather data.  It is not intended as a substitute for an official pre-flight weather briefing.

12:40:48 UTC

KFCM METAR
Flying Cloud Airport
Minneapolis, Minnesota, USA
Current

48 mins ago

KFCM 161153Z 31006KT 10SM OVC016 06/02 A3009 RMK AO2 SLP195 70001 T00610022 10067 20061 50007
Observed
Oct-16 @ 11:53 UTC
Wind
  • 310° at 6 KTS
Visibility
10 SM
Flight Rules
MVFR
Cloud Levels
  • Overcast at 1,600' AGL
Temperature
C / 43°F
Dewpoint
C / 36°F
Humidity
76%
Altimeter
30.09" Hg
Pressure
1018.92 hPa
24 Hour Rain
0.01"
Previous

2 hours ago

KFCM 161053Z 31008KT 10SM OVC018 06/02 A3009 RMK AO2 SLP196 T00610022
Observed
Oct-16 @ 10:53 UTC
Wind
  • 310° at 8 KTS
Visibility
10 SM
Flight Rules
MVFR
Cloud Levels
  • Overcast at 1,800' AGL
Temperature
C / 43°F
Dewpoint
C / 36°F
Humidity
76%
Altimeter
30.09" Hg
Pressure
1018.92 hPa
Previous

3 hours ago

KFCM 160953Z AUTO 30010KT 10SM OVC018 07/02 A3007 RMK AO2 SLP189 T00670022
Observed
Oct-16 @ 09:53 UTC
Wind
  • 300° at 10 KTS
Visibility
10 SM
Flight Rules
MVFR
Cloud Levels
  • Overcast at 1,800' AGL
Temperature
C / 45°F
Dewpoint
C / 36°F
Humidity
71%
Altimeter
30.07" Hg
Pressure
1018.32 hPa